sensor_id;sensor_type;location;lat;lon;timestamp;P1;durP1;ratioP1;P2;durP2;ratioP2
64291;SDS011;50628;51.008;13.658;2024-03-02T00:04:09;58.43;;;44.70;;
64291;SDS011;50628;51.008;13.658;2024-03-02T00:09:11;60.30;;;44.13;;
64291;SDS011;50628;51.008;13.658;2024-03-02T00:14:13;58.73;;;43.90;;
64291;SDS011;50628;51.008;13.658;2024-03-02T00:19:18;58.43;;;44.63;;
64291;SDS011;50628;51.008;13.658;2024-03-02T00:24:21;60.07;;;45.50;;
64291;SDS011;50628;51.008;13.658;2024-03-02T00:29:28;62.20;;;46.10;;
64291;SDS011;50628;51.008;13.658;2024-03-02T00:34:32;65.40;;;46.07;;
64291;SDS011;50628;51.008;13.658;2024-03-02T00:39:34;62.00;;;46.03;;
64291;SDS011;50628;51.008;13.658;2024-03-02T00:44:36;62.33;;;45.97;;
64291;SDS011;50628;51.008;13.658;2024-03-02T00:49:39;58.93;;;43.53;;
64291;SDS011;50628;51.008;13.658;2024-03-02T00:54:41;63.57;;;45.70;;
64291;SDS011;50628;51.008;13.658;2024-03-02T00:59:44;61.30;;;44.37;;
64291;SDS011;50628;51.008;13.658;2024-03-02T01:04:48;57.97;;;43.50;;
64291;SDS011;50628;51.008;13.658;2024-03-02T01:09:50;58.53;;;43.60;;
64291;SDS011;50628;51.008;13.658;2024-03-02T01:14:51;54.77;;;42.63;;
64291;SDS011;50628;51.008;13.658;2024-03-02T01:19:55;58.50;;;41.63;;
64291;SDS011;50628;51.008;13.658;2024-03-02T01:24:57;53.40;;;41.70;;
64291;SDS011;50628;51.008;13.658;2024-03-02T01:29:58;55.03;;;40.60;;
64291;SDS011;50628;51.008;13.658;2024-03-02T01:35:02;60.87;;;43.80;;
64291;SDS011;50628;51.008;13.658;2024-03-02T01:40:04;55.80;;;41.30;;
64291;SDS011;50628;51.008;13.658;2024-03-02T01:45:09;56.63;;;43.83;;
64291;SDS011;50628;51.008;13.658;2024-03-02T01:50:12;59.43;;;41.80;;
64291;SDS011;50628;51.008;13.658;2024-03-02T01:55:14;59.20;;;42.90;;
64291;SDS011;50628;51.008;13.658;2024-03-02T02:00:16;59.07;;;42.03;;
64291;SDS011;50628;51.008;13.658;2024-03-02T02:05:20;54.90;;;41.60;;
64291;SDS011;50628;51.008;13.658;2024-03-02T02:10:22;58.10;;;42.47;;
64291;SDS011;50628;51.008;13.658;2024-03-02T02:15:25;62.43;;;43.27;;
64291;SDS011;50628;51.008;13.658;2024-03-02T02:20:29;56.27;;;42.67;;
64291;SDS011;50628;51.008;13.658;2024-03-02T02:25:32;57.27;;;43.07;;
64291;SDS011;50628;51.008;13.658;2024-03-02T02:30:34;60.87;;;42.33;;
64291;SDS011;50628;51.008;13.658;2024-03-02T02:35:36;53.57;;;41.30;;
64291;SDS011;50628;51.008;13.658;2024-03-02T02:40:39;59.60;;;43.20;;
64291;SDS011;50628;51.008;13.658;2024-03-02T02:45:41;60.00;;;41.00;;
64291;SDS011;50628;51.008;13.658;2024-03-02T02:50:43;52.03;;;40.13;;
64291;SDS011;50628;51.008;13.658;2024-03-02T02:55:46;52.07;;;39.63;;
64291;SDS011;50628;51.008;13.658;2024-03-02T03:00:48;52.67;;;39.17;;
64291;SDS011;50628;51.008;13.658;2024-03-02T03:05:49;61.20;;;42.40;;
64291;SDS011;50628;51.008;13.658;2024-03-02T03:10:53;57.73;;;42.93;;
64291;SDS011;50628;51.008;13.658;2024-03-02T03:15:55;61.03;;;42.50;;
64291;SDS011;50628;51.008;13.658;2024-03-02T03:20:56;55.10;;;40.67;;
64291;SDS011;50628;51.008;13.658;2024-03-02T03:26:00;55.20;;;42.93;;
64291;SDS011;50628;51.008;13.658;2024-03-02T03:31:02;56.93;;;39.77;;
64291;SDS011;50628;51.008;13.658;2024-03-02T03:36:04;50.73;;;39.13;;
64291;SDS011;50628;51.008;13.658;2024-03-02T03:41:07;60.77;;;43.33;;
64291;SDS011;50628;51.008;13.658;2024-03-02T03:46:09;61.07;;;41.47;;
64291;SDS011;50628;51.008;13.658;2024-03-02T03:51:11;56.47;;;41.77;;
64291;SDS011;50628;51.008;13.658;2024-03-02T03:56:14;53.37;;;40.07;;
64291;SDS011;50628;51.008;13.658;2024-03-02T04:01:16;56.23;;;40.33;;
64291;SDS011;50628;51.008;13.658;2024-03-02T04:06:18;61.77;;;42.07;;
64291;SDS011;50628;51.008;13.658;2024-03-02T04:11:21;58.43;;;42.30;;
64291;SDS011;50628;51.008;13.658;2024-03-02T04:16:23;61.00;;;43.60;;
64291;SDS011;50628;51.008;13.658;2024-03-02T04:21:25;55.47;;;43.27;;
64291;SDS011;50628;51.008;13.658;2024-03-02T04:26:28;60.63;;;45.53;;
64291;SDS011;50628;51.008;13.658;2024-03-02T04:31:30;59.27;;;42.93;;
64291;SDS011;50628;51.008;13.658;2024-03-02T04:36:32;57.53;;;42.03;;
64291;SDS011;50628;51.008;13.658;2024-03-02T04:41:35;57.73;;;42.77;;
64291;SDS011;50628;51.008;13.658;2024-03-02T04:46:37;61.07;;;43.17;;
64291;SDS011;50628;51.008;13.658;2024-03-02T04:51:38;60.77;;;43.10;;
64291;SDS011;50628;51.008;13.658;2024-03-02T04:56:42;58.37;;;42.57;;
64291;SDS011;50628;51.008;13.658;2024-03-02T05:01:49;57.33;;;42.83;;
64291;SDS011;50628;51.008;13.658;2024-03-02T05:06:51;51.53;;;39.23;;
64291;SDS011;50628;51.008;13.658;2024-03-02T05:11:57;57.27;;;42.20;;
64291;SDS011;50628;51.008;13.658;2024-03-02T05:17:23;51.47;;;40.20;;
64291;SDS011;50628;51.008;13.658;2024-03-02T05:22:25;54.07;;;39.77;;
64291;SDS011;50628;51.008;13.658;2024-03-02T05:27:28;54.17;;;39.40;;
64291;SDS011;50628;51.008;13.658;2024-03-02T05:32:30;54.33;;;39.50;;
64291;SDS011;50628;51.008;13.658;2024-03-02T05:37:32;56.13;;;40.33;;
64291;SDS011;50628;51.008;13.658;2024-03-02T05:42:35;53.27;;;41.77;;
64291;SDS011;50628;51.008;13.658;2024-03-02T05:47:37;54.67;;;41.20;;
64291;SDS011;50628;51.008;13.658;2024-03-02T05:52:39;56.90;;;41.47;;
64291;SDS011;50628;51.008;13.658;2024-03-02T05:57:42;54.27;;;42.10;;
64291;SDS011;50628;51.008;13.658;2024-03-02T06:02:59;58.03;;;42.43;;
64291;SDS011;50628;51.008;13.658;2024-03-02T06:08:01;62.47;;;43.70;;
64291;SDS011;50628;51.008;13.658;2024-03-02T06:13:04;57.80;;;39.93;;
64291;SDS011;50628;51.008;13.658;2024-03-02T06:18:06;54.23;;;42.57;;
64291;SDS011;50628;51.008;13.658;2024-03-02T06:23:08;59.17;;;42.83;;
64291;SDS011;50628;51.008;13.658;2024-03-02T06:28:11;58.13;;;42.00;;
64291;SDS011;50628;51.008;13.658;2024-03-02T06:33:15;53.53;;;39.57;;
64291;SDS011;50628;51.008;13.658;2024-03-02T06:38:17;58.80;;;41.10;;
64291;SDS011;50628;51.008;13.658;2024-03-02T06:43:21;50.97;;;40.30;;
64291;SDS011;50628;51.008;13.658;2024-03-02T06:48:23;56.60;;;40.83;;
64291;SDS011;50628;51.008;13.658;2024-03-02T06:53:25;56.37;;;40.67;;
64291;SDS011;50628;51.008;13.658;2024-03-02T06:58:29;55.73;;;40.77;;
64291;SDS011;50628;51.008;13.658;2024-03-02T07:03:30;59.77;;;42.17;;
64291;SDS011;50628;51.008;13.658;2024-03-02T07:08:33;61.30;;;42.57;;
64291;SDS011;50628;51.008;13.658;2024-03-02T07:13:36;57.97;;;41.70;;
64291;SDS011;50628;51.008;13.658;2024-03-02T07:18:39;56.20;;;41.20;;
64291;SDS011;50628;51.008;13.658;2024-03-02T07:23:45;61.10;;;43.47;;
64291;SDS011;50628;51.008;13.658;2024-03-02T07:28:48;56.97;;;40.97;;
64291;SDS011;50628;51.008;13.658;2024-03-02T07:33:50;56.83;;;39.30;;
64291;SDS011;50628;51.008;13.658;2024-03-02T07:38:52;60.10;;;42.10;;
64291;SDS011;50628;51.008;13.658;2024-03-02T07:43:56;54.43;;;38.53;;
64291;SDS011;50628;51.008;13.658;2024-03-02T07:48:58;60.57;;;41.10;;
64291;SDS011;50628;51.008;13.658;2024-03-02T07:54:00;61.63;;;43.00;;
64291;SDS011;50628;51.008;13.658;2024-03-02T07:59:03;64.70;;;45.97;;
64291;SDS011;50628;51.008;13.658;2024-03-02T08:04:05;59.07;;;42.90;;
64291;SDS011;50628;51.008;13.658;2024-03-02T08:09:08;64.73;;;43.17;;
64291;SDS011;50628;51.008;13.658;2024-03-02T08:14:12;57.37;;;41.03;;
64291;SDS011;50628;51.008;13.658;2024-03-02T08:19:14;64.40;;;44.03;;
64291;SDS011;50628;51.008;13.658;2024-03-02T08:24:15;65.97;;;46.97;;
64291;SDS011;50628;51.008;13.658;2024-03-02T08:29:19;63.23;;;45.30;;
64291;SDS011;50628;51.008;13.658;2024-03-02T08:34:21;63.23;;;45.17;;
64291;SDS011;50628;51.008;13.658;2024-03-02T08:39:22;73.00;;;46.50;;
64291;SDS011;50628;51.008;13.658;2024-03-02T08:44:26;63.57;;;43.73;;
64291;SDS011;50628;51.008;13.658;2024-03-02T08:49:27;62.53;;;45.50;;
64291;SDS011;50628;51.008;13.658;2024-03-02T08:54:29;63.67;;;45.30;;
64291;SDS011;50628;51.008;13.658;2024-03-02T08:59:33;69.47;;;48.10;;
64291;SDS011;50628;51.008;13.658;2024-03-02T09:04:35;62.43;;;44.47;;
64291;SDS011;50628;51.008;13.658;2024-03-02T09:09:37;68.93;;;45.97;;
64291;SDS011;50628;51.008;13.658;2024-03-02T09:14:41;58.47;;;40.90;;
64291;SDS011;50628;51.008;13.658;2024-03-02T09:19:43;57.53;;;38.20;;
64291;SDS011;50628;51.008;13.658;2024-03-02T09:24:44;50.40;;;32.87;;
64291;SDS011;50628;51.008;13.658;2024-03-02T09:29:48;39.27;;;26.90;;
64291;SDS011;50628;51.008;13.658;2024-03-02T09:34:49;39.83;;;27.83;;
64291;SDS011;50628;51.008;13.658;2024-03-02T09:39:52;39.50;;;27.87;;
64291;SDS011;50628;51.008;13.658;2024-03-02T09:44:55;39.03;;;26.17;;
64291;SDS011;50628;51.008;13.658;2024-03-02T09:49:58;40.57;;;28.17;;
64291;SDS011;50628;51.008;13.658;2024-03-02T09:55:01;34.37;;;24.13;;
64291;SDS011;50628;51.008;13.658;2024-03-02T10:00:07;28.13;;;22.13;;
64291;SDS011;50628;51.008;13.658;2024-03-02T10:05:23;48.13;;;31.27;;
64291;SDS011;50628;51.008;13.658;2024-03-02T10:10:26;48.80;;;31.00;;
64291;SDS011;50628;51.008;13.658;2024-03-02T10:15:37;47.53;;;28.63;;
64291;SDS011;50628;51.008;13.658;2024-03-02T10:20:41;37.57;;;23.70;;
64291;SDS011;50628;51.008;13.658;2024-03-02T10:25:43;37.07;;;24.03;;
64291;SDS011;50628;51.008;13.658;2024-03-02T10:30:48;30.33;;;19.73;;
64291;SDS011;50628;51.008;13.658;2024-03-02T10:35:52;14.90;;;11.73;;
64291;SDS011;50628;51.008;13.658;2024-03-02T10:40:54;15.03;;;11.07;;
64291;SDS011;50628;51.008;13.658;2024-03-02T10:45:58;12.70;;;10.17;;
64291;SDS011;50628;51.008;13.658;2024-03-02T10:51:00;11.37;;;8.63;;
64291;SDS011;50628;51.008;13.658;2024-03-02T10:56:03;12.20;;;8.33;;
64291;SDS011;50628;51.008;13.658;2024-03-02T11:01:10;12.43;;;7.37;;
64291;SDS011;50628;51.008;13.658;2024-03-02T11:06:12;7.50;;;6.03;;
64291;SDS011;50628;51.008;13.658;2024-03-02T11:11:15;8.93;;;6.80;;
64291;SDS011;50628;51.008;13.658;2024-03-02T11:16:31;10.10;;;7.10;;
64291;SDS011;50628;51.008;13.658;2024-03-02T11:21:35;10.57;;;7.40;;
64291;SDS011;50628;51.008;13.658;2024-03-02T11:26:38;9.17;;;7.63;;
64291;SDS011;50628;51.008;13.658;2024-03-02T11:37:03;15.23;;;9.87;;
64291;SDS011;50628;51.008;13.658;2024-03-02T11:42:05;18.43;;;11.47;;
64291;SDS011;50628;51.008;13.658;2024-03-02T11:47:11;15.00;;;11.53;;
64291;SDS011;50628;51.008;13.658;2024-03-02T11:52:15;17.07;;;10.57;;
64291;SDS011;50628;51.008;13.658;2024-03-02T11:57:18;19.37;;;12.10;;
64291;SDS011;50628;51.008;13.658;2024-03-02T12:02:24;19.37;;;12.47;;
64291;SDS011;50628;51.008;13.658;2024-03-02T12:07:25;18.60;;;13.07;;
64291;SDS011;50628;51.008;13.658;2024-03-02T12:12:28;17.73;;;12.63;;
64291;SDS011;50628;51.008;13.658;2024-03-02T12:17:31;21.03;;;13.47;;
64291;SDS011;50628;51.008;13.658;2024-03-02T12:22:33;14.60;;;10.73;;
64291;SDS011;50628;51.008;13.658;2024-03-02T12:27:35;16.17;;;10.70;;
64291;SDS011;50628;51.008;13.658;2024-03-02T12:32:38;18.93;;;12.03;;
64291;SDS011;50628;51.008;13.658;2024-03-02T12:37:43;14.47;;;10.07;;
64291;SDS011;50628;51.008;13.658;2024-03-02T12:42:46;13.20;;;10.43;;
64291;SDS011;50628;51.008;13.658;2024-03-02T12:47:50;14.20;;;9.87;;
64291;SDS011;50628;51.008;13.658;2024-03-02T12:52:52;13.97;;;10.07;;
64291;SDS011;50628;51.008;13.658;2024-03-02T12:57:55;16.13;;;9.30;;
64291;SDS011;50628;51.008;13.658;2024-03-02T13:02:58;16.00;;;10.30;;
64291;SDS011;50628;51.008;13.658;2024-03-02T13:08:02;18.87;;;11.77;;
64291;SDS011;50628;51.008;13.658;2024-03-02T13:13:05;16.70;;;11.67;;
64291;SDS011;50628;51.008;13.658;2024-03-02T13:18:08;23.27;;;12.07;;
64291;SDS011;50628;51.008;13.658;2024-03-02T13:23:10;16.20;;;11.73;;
64291;SDS011;50628;51.008;13.658;2024-03-02T13:28:12;20.50;;;13.50;;
64291;SDS011;50628;51.008;13.658;2024-03-02T13:33:15;20.27;;;12.67;;
64291;SDS011;50628;51.008;13.658;2024-03-02T13:38:22;20.30;;;13.10;;
64291;SDS011;50628;51.008;13.658;2024-03-02T13:43:24;24.17;;;13.13;;
64291;SDS011;50628;51.008;13.658;2024-03-02T13:48:27;18.27;;;11.97;;
64291;SDS011;50628;51.008;13.658;2024-03-02T13:53:29;22.43;;;13.77;;
64291;SDS011;50628;51.008;13.658;2024-03-02T13:58:32;25.17;;;15.93;;
64291;SDS011;50628;51.008;13.658;2024-03-02T14:03:35;24.40;;;15.70;;
64291;SDS011;50628;51.008;13.658;2024-03-02T14:08:37;24.83;;;14.97;;
64291;SDS011;50628;51.008;13.658;2024-03-02T14:13:39;33.97;;;17.67;;
64291;SDS011;50628;51.008;13.658;2024-03-02T14:18:42;28.07;;;16.93;;
64291;SDS011;50628;51.008;13.658;2024-03-02T14:23:44;25.57;;;15.20;;
64291;SDS011;50628;51.008;13.658;2024-03-02T14:28:46;30.03;;;17.73;;
64291;SDS011;50628;51.008;13.658;2024-03-02T14:33:51;28.37;;;18.90;;
64291;SDS011;50628;51.008;13.658;2024-03-02T14:38:53;28.93;;;18.20;;
64291;SDS011;50628;51.008;13.658;2024-03-02T14:43:55;27.07;;;18.77;;
64291;SDS011;50628;51.008;13.658;2024-03-02T14:48:58;28.77;;;17.63;;
64291;SDS011;50628;51.008;13.658;2024-03-02T14:54:00;32.23;;;19.03;;
64291;SDS011;50628;51.008;13.658;2024-03-02T14:59:03;33.20;;;18.17;;
64291;SDS011;50628;51.008;13.658;2024-03-02T15:04:06;26.33;;;17.17;;
64291;SDS011;50628;51.008;13.658;2024-03-02T15:09:08;23.33;;;15.67;;
64291;SDS011;50628;51.008;13.658;2024-03-02T15:14:10;28.23;;;17.30;;
64291;SDS011;50628;51.008;13.658;2024-03-02T15:19:13;31.23;;;17.50;;
64291;SDS011;50628;51.008;13.658;2024-03-02T15:24:15;25.33;;;17.30;;
64291;SDS011;50628;51.008;13.658;2024-03-02T15:29:17;23.17;;;15.70;;
64291;SDS011;50628;51.008;13.658;2024-03-02T15:34:21;23.13;;;15.47;;
64291;SDS011;50628;51.008;13.658;2024-03-02T15:39:23;23.37;;;17.00;;
64291;SDS011;50628;51.008;13.658;2024-03-02T15:44:25;28.37;;;16.57;;
64291;SDS011;50628;51.008;13.658;2024-03-02T15:49:28;26.33;;;15.67;;
64291;SDS011;50628;51.008;13.658;2024-03-02T15:54:32;22.37;;;13.67;;
64291;SDS011;50628;51.008;13.658;2024-03-02T15:59:34;24.97;;;14.73;;
64291;SDS011;50628;51.008;13.658;2024-03-02T16:04:37;25.70;;;15.33;;
64291;SDS011;50628;51.008;13.658;2024-03-02T16:09:39;24.43;;;15.13;;
64291;SDS011;50628;51.008;13.658;2024-03-02T16:14:41;28.50;;;15.60;;
64291;SDS011;50628;51.008;13.658;2024-03-02T16:19:44;21.07;;;15.87;;
64291;SDS011;50628;51.008;13.658;2024-03-02T16:24:47;25.80;;;16.70;;
64291;SDS011;50628;51.008;13.658;2024-03-02T16:29:49;26.37;;;16.67;;
64291;SDS011;50628;51.008;13.658;2024-03-02T16:34:52;24.17;;;15.53;;
64291;SDS011;50628;51.008;13.658;2024-03-02T16:39:54;25.40;;;17.93;;
64291;SDS011;50628;51.008;13.658;2024-03-02T16:44:57;23.90;;;15.90;;
64291;SDS011;50628;51.008;13.658;2024-03-02T16:50:00;29.97;;;16.97;;
64291;SDS011;50628;51.008;13.658;2024-03-02T16:55:03;23.97;;;16.27;;
64291;SDS011;50628;51.008;13.658;2024-03-02T17:00:07;31.33;;;19.30;;
64291;SDS011;50628;51.008;13.658;2024-03-02T17:05:11;30.30;;;18.77;;
64291;SDS011;50628;51.008;13.658;2024-03-02T17:10:12;29.17;;;19.50;;
64291;SDS011;50628;51.008;13.658;2024-03-02T17:15:14;36.90;;;19.70;;
64291;SDS011;50628;51.008;13.658;2024-03-02T17:20:18;34.00;;;21.60;;
64291;SDS011;50628;51.008;13.658;2024-03-02T17:25:20;38.73;;;25.00;;
64291;SDS011;50628;51.008;13.658;2024-03-02T17:30:21;39.30;;;23.27;;
64291;SDS011;50628;51.008;13.658;2024-03-02T17:35:25;46.33;;;27.97;;
64291;SDS011;50628;51.008;13.658;2024-03-02T17:40:27;32.10;;;19.80;;
64291;SDS011;50628;51.008;13.658;2024-03-02T17:45:28;26.30;;;19.63;;
64291;SDS011;50628;51.008;13.658;2024-03-02T17:50:32;24.40;;;17.43;;
64291;SDS011;50628;51.008;13.658;2024-03-02T17:55:33;28.43;;;18.87;;
64291;SDS011;50628;51.008;13.658;2024-03-02T18:00:37;28.17;;;19.57;;
64291;SDS011;50628;51.008;13.658;2024-03-02T18:05:40;26.13;;;17.80;;
64291;SDS011;50628;51.008;13.658;2024-03-02T18:10:42;34.33;;;21.27;;
64291;SDS011;50628;51.008;13.658;2024-03-02T18:15:44;25.50;;;17.37;;
64291;SDS011;50628;51.008;13.658;2024-03-02T18:20:47;27.20;;;18.07;;
64291;SDS011;50628;51.008;13.658;2024-03-02T18:25:50;27.20;;;19.67;;
64291;SDS011;50628;51.008;13.658;2024-03-02T18:30:52;30.40;;;22.07;;
64291;SDS011;50628;51.008;13.658;2024-03-02T18:35:55;37.30;;;24.60;;
64291;SDS011;50628;51.008;13.658;2024-03-02T18:40:57;42.47;;;28.33;;
64291;SDS011;50628;51.008;13.658;2024-03-02T18:45:59;52.90;;;34.23;;
64291;SDS011;50628;51.008;13.658;2024-03-02T18:51:06;53.90;;;33.07;;
64291;SDS011;50628;51.008;13.658;2024-03-02T18:56:09;46.30;;;33.03;;
64291;SDS011;50628;51.008;13.658;2024-03-02T19:01:11;40.00;;;23.70;;
64291;SDS011;50628;51.008;13.658;2024-03-02T19:06:15;32.33;;;22.87;;
64291;SDS011;50628;51.008;13.658;2024-03-02T19:11:17;36.40;;;21.20;;
64291;SDS011;50628;51.008;13.658;2024-03-02T19:16:20;32.07;;;23.77;;
64291;SDS011;50628;51.008;13.658;2024-03-02T19:21:23;41.20;;;26.47;;
64291;SDS011;50628;51.008;13.658;2024-03-02T19:26:25;36.13;;;25.63;;
64291;SDS011;50628;51.008;13.658;2024-03-02T19:31:27;33.70;;;23.90;;
64291;SDS011;50628;51.008;13.658;2024-03-02T19:36:30;31.80;;;22.70;;
64291;SDS011;50628;51.008;13.658;2024-03-02T19:41:32;32.03;;;23.30;;
64291;SDS011;50628;51.008;13.658;2024-03-02T19:46:34;38.63;;;24.00;;
64291;SDS011;50628;51.008;13.658;2024-03-02T19:51:37;34.40;;;23.93;;
64291;SDS011;50628;51.008;13.658;2024-03-02T19:56:39;33.90;;;24.13;;
64291;SDS011;50628;51.008;13.658;2024-03-02T20:01:41;35.80;;;23.17;;
64291;SDS011;50628;51.008;13.658;2024-03-02T20:06:44;30.23;;;21.73;;
64291;SDS011;50628;51.008;13.658;2024-03-02T20:11:46;32.97;;;24.33;;
64291;SDS011;50628;51.008;13.658;2024-03-02T20:16:49;31.83;;;23.53;;
64291;SDS011;50628;51.008;13.658;2024-03-02T20:21:52;34.73;;;23.63;;
64291;SDS011;50628;51.008;13.658;2024-03-02T20:26:54;37.17;;;24.60;;
64291;SDS011;50628;51.008;13.658;2024-03-02T20:31:56;35.90;;;24.37;;
64291;SDS011;50628;51.008;13.658;2024-03-02T20:37:00;43.07;;;28.30;;
64291;SDS011;50628;51.008;13.658;2024-03-02T20:42:02;35.40;;;24.47;;
64291;SDS011;50628;51.008;13.658;2024-03-02T20:47:04;41.37;;;27.03;;
64291;SDS011;50628;51.008;13.658;2024-03-02T20:52:07;41.87;;;27.10;;
64291;SDS011;50628;51.008;13.658;2024-03-02T20:57:09;39.73;;;27.47;;
64291;SDS011;50628;51.008;13.658;2024-03-02T21:02:11;42.33;;;28.07;;
64291;SDS011;50628;51.008;13.658;2024-03-02T21:07:14;37.37;;;27.07;;
64291;SDS011;50628;51.008;13.658;2024-03-02T21:12:18;34.87;;;25.00;;
64291;SDS011;50628;51.008;13.658;2024-03-02T21:17:20;37.70;;;26.70;;
64291;SDS011;50628;51.008;13.658;2024-03-02T21:22:23;40.63;;;27.33;;
64291;SDS011;50628;51.008;13.658;2024-03-02T21:27:25;40.87;;;27.07;;
64291;SDS011;50628;51.008;13.658;2024-03-02T21:32:27;38.90;;;27.33;;
64291;SDS011;50628;51.008;13.658;2024-03-02T21:37:30;39.73;;;26.30;;
64291;SDS011;50628;51.008;13.658;2024-03-02T21:42:32;42.43;;;28.43;;
64291;SDS011;50628;51.008;13.658;2024-03-02T21:47:34;45.63;;;29.50;;
64291;SDS011;50628;51.008;13.658;2024-03-02T21:52:37;39.07;;;27.57;;
64291;SDS011;50628;51.008;13.658;2024-03-02T21:57:39;38.57;;;27.87;;
64291;SDS011;50628;51.008;13.658;2024-03-02T22:02:41;36.60;;;27.20;;
64291;SDS011;50628;51.008;13.658;2024-03-02T22:07:44;37.27;;;28.20;;
64291;SDS011;50628;51.008;13.658;2024-03-02T22:12:47;38.40;;;26.90;;
64291;SDS011;50628;51.008;13.658;2024-03-02T22:17:48;41.07;;;28.00;;
64291;SDS011;50628;51.008;13.658;2024-03-02T22:22:52;46.43;;;29.20;;
64291;SDS011;50628;51.008;13.658;2024-03-02T22:27:54;41.03;;;30.27;;
64291;SDS011;50628;51.008;13.658;2024-03-02T22:32:56;43.87;;;29.60;;
64291;SDS011;50628;51.008;13.658;2024-03-02T22:37:59;41.43;;;29.47;;
64291;SDS011;50628;51.008;13.658;2024-03-02T22:43:01;42.43;;;28.63;;
64291;SDS011;50628;51.008;13.658;2024-03-02T22:48:03;40.20;;;26.70;;
64291;SDS011;50628;51.008;13.658;2024-03-02T22:53:07;41.33;;;27.47;;
64291;SDS011;50628;51.008;13.658;2024-03-02T22:58:09;36.33;;;26.47;;
64291;SDS011;50628;51.008;13.658;2024-03-02T23:03:10;41.80;;;27.20;;
64291;SDS011;50628;51.008;13.658;2024-03-02T23:08:14;38.90;;;27.17;;
64291;SDS011;50628;51.008;13.658;2024-03-02T23:13:16;37.87;;;26.57;;
64291;SDS011;50628;51.008;13.658;2024-03-02T23:18:18;41.80;;;28.80;;
64291;SDS011;50628;51.008;13.658;2024-03-02T23:23:21;46.70;;;29.07;;
64291;SDS011;50628;51.008;13.658;2024-03-02T23:28:23;41.50;;;28.87;;
64291;SDS011;50628;51.008;13.658;2024-03-02T23:33:25;38.70;;;27.03;;
64291;SDS011;50628;51.008;13.658;2024-03-02T23:38:28;43.90;;;29.17;;
64291;SDS011;50628;51.008;13.658;2024-03-02T23:43:30;37.47;;;28.17;;
64291;SDS011;50628;51.008;13.658;2024-03-02T23:48:32;41.80;;;28.03;;
64291;SDS011;50628;51.008;13.658;2024-03-02T23:53:35;39.37;;;28.40;;
64291;SDS011;50628;51.008;13.658;2024-03-02T23:58:37;41.00;;;27.93;;
